sensor_id;sensor_type;location;lat;lon;timestamp;pressure;altitude;pressure_sealevel;temperature;humidity
58775;BME280;44545;47.480;19.024;2023-02-07T03:43:37;102418.25;;;-6.85;99.48
58775;BME280;44545;47.480;19.024;2023-02-07T03:46:40;102407.03;;;-6.76;99.24
58775;BME280;44545;47.480;19.024;2023-02-07T03:49:42;102404.72;;;-6.68;98.64
58775;BME280;44545;47.480;19.024;2023-02-07T03:52:45;102402.78;;;-6.92;98.67
58775;BME280;44545;47.480;19.024;2023-02-07T03:55:47;102396.16;;;-6.74;100.00
58775;BME280;44545;47.480;19.024;2023-02-07T03:58:50;102396.63;;;-6.71;99.33
58775;BME280;44545;47.480;19.024;2023-02-07T04:01:52;102406.59;;;-6.62;98.83
58775;BME280;44545;47.480;19.024;2023-02-07T04:04:55;102397.84;;;-6.58;98.68
58775;BME280;44545;47.480;19.024;2023-02-07T04:07:57;102397.41;;;-6.50;97.86
58775;BME280;44545;47.480;19.024;2023-02-07T04:11:01;102389.09;;;-6.43;97.24
58775;BME280;44545;47.480;19.024;2023-02-07T04:14:04;102393.63;;;-6.74;97.01
58775;BME280;44545;47.480;19.024;2023-02-07T04:17:06;102392.59;;;-7.03;98.52
58775;BME280;44545;47.480;19.024;2023-02-07T04:20:09;102404.91;;;-7.22;99.55
58775;BME280;44545;47.480;19.024;2023-02-07T04:23:12;102403.03;;;-6.85;99.99
58775;BME280;44545;47.480;19.024;2023-02-07T04:26:14;102402.41;;;-6.72;99.22
58775;BME280;44545;47.480;19.024;2023-02-07T04:29:17;102399.63;;;-6.68;98.57
58775;BME280;44545;47.480;19.024;2023-02-07T04:32:19;102386.28;;;-6.62;97.81
58775;BME280;44545;47.480;19.024;2023-02-07T04:35:21;102386.94;;;-6.80;97.53
58775;BME280;44545;47.480;19.024;2023-02-07T04:38:24;102378.94;;;-6.66;97.70
58775;BME280;44545;47.480;19.024;2023-02-07T04:41:27;102374.28;;;-6.68;97.95
58775;BME280;44545;47.480;19.024;2023-02-07T04:44:29;102372.22;;;-6.60;97.91
58775;BME280;44545;47.480;19.024;2023-02-07T04:47:32;102393.16;;;-6.83;97.93
58775;BME280;44545;47.480;19.024;2023-02-07T04:50:34;102394.34;;;-6.76;97.44
58775;BME280;44545;47.480;19.024;2023-02-07T04:53:36;102410.78;;;-7.11;98.12
58775;BME280;44545;47.480;19.024;2023-02-07T04:56:39;102411.78;;;-7.32;99.37
58775;BME280;44545;47.480;19.024;2023-02-07T04:59:41;102413.56;;;-7.04;100.00
58775;BME280;44545;47.480;19.024;2023-02-07T05:02:43;102414.81;;;-6.85;99.17
58775;BME280;44545;47.480;19.024;2023-02-07T05:05:46;102419.06;;;-6.63;98.84
58775;BME280;44545;47.480;19.024;2023-02-07T05:08:48;102420.44;;;-6.60;97.58
58775;BME280;44545;47.480;19.024;2023-02-07T05:11:50;102428.78;;;-6.55;97.66
58775;BME280;44545;47.480;19.024;2023-02-07T05:14:52;102432.03;;;-6.50;97.10
58775;BME280;44545;47.480;19.024;2023-02-07T05:17:55;102441.25;;;-6.45;96.85
58775;BME280;44545;47.480;19.024;2023-02-07T05:20:58;102442.66;;;-6.36;96.73
58775;BME280;44545;47.480;19.024;2023-02-07T05:24:00;102446.81;;;-6.37;96.57
58775;BME280;44545;47.480;19.024;2023-02-07T05:27:03;102448.88;;;-6.40;96.72
58775;BME280;44545;47.480;19.024;2023-02-07T05:30:06;102451.66;;;-6.38;96.52
58775;BME280;44545;47.480;19.024;2023-02-07T05:33:09;102452.34;;;-6.45;96.37
58775;BME280;44545;47.480;19.024;2023-02-07T05:36:12;102468.13;;;-6.68;96.03
58775;BME280;44545;47.480;19.024;2023-02-07T05:39:14;102465.00;;;-6.94;98.10
58775;BME280;44545;47.480;19.024;2023-02-07T05:42:17;102464.22;;;-6.66;98.71
58775;BME280;44545;47.480;19.024;2023-02-07T05:45:20;102454.06;;;-6.72;98.43
58775;BME280;44545;47.480;19.024;2023-02-07T05:48:22;102460.09;;;-6.66;97.82
58775;BME280;44545;47.480;19.024;2023-02-07T05:51:24;102464.22;;;-6.72;97.51
58775;BME280;44545;47.480;19.024;2023-02-07T05:54:28;102478.03;;;-6.76;97.81
58775;BME280;44545;47.480;19.024;2023-02-07T05:57:31;102469.25;;;-6.83;98.02
58775;BME280;44545;47.480;19.024;2023-02-07T06:00:33;102461.41;;;-6.73;97.89
58775;BME280;44545;47.480;19.024;2023-02-07T06:03:36;102463.78;;;-6.64;97.58
58775;BME280;44545;47.480;19.024;2023-02-07T06:06:38;102458.31;;;-6.56;97.20
58775;BME280;44545;47.480;19.024;2023-02-07T06:09:40;102457.16;;;-6.41;96.90
58775;BME280;44545;47.480;19.024;2023-02-07T06:12:42;102459.72;;;-6.41;96.44
58775;BME280;44545;47.480;19.024;2023-02-07T06:15:46;102464.47;;;-6.70;95.60
58775;BME280;44545;47.480;19.024;2023-02-07T06:18:49;102469.12;;;-7.00;97.23
58775;BME280;44545;47.480;19.024;2023-02-07T06:21:52;102475.56;;;-7.02;97.52
58775;BME280;44545;47.480;19.024;2023-02-07T06:24:54;102470.66;;;-6.74;97.14
58775;BME280;44545;47.480;19.024;2023-02-07T06:27:56;102458.31;;;-6.50;96.76
58775;BME280;44545;47.480;19.024;2023-02-07T06:30:58;102476.34;;;-6.86;96.35
58775;BME280;44545;47.480;19.024;2023-02-07T06:34:01;102474.75;;;-6.86;97.25
58775;BME280;44545;47.480;19.024;2023-02-07T06:37:03;102465.66;;;-6.63;97.30
58775;BME280;44545;47.480;19.024;2023-02-07T06:40:06;102453.72;;;-6.41;96.69
58775;BME280;44545;47.480;19.024;2023-02-07T06:43:10;102459.31;;;-6.33;95.37
58775;BME280;44545;47.480;19.024;2023-02-07T06:46:13;102449.66;;;-6.07;94.44
58775;BME280;44545;47.480;19.024;2023-02-07T06:49:15;102442.00;;;-6.29;94.24
58775;BME280;44545;47.480;19.024;2023-02-07T06:52:18;102439.47;;;-6.24;94.81
58775;BME280;44545;47.480;19.024;2023-02-07T06:55:20;102437.38;;;-6.32;94.83
58775;BME280;44545;47.480;19.024;2023-02-07T06:58:23;102445.91;;;-6.26;95.06
58775;BME280;44545;47.480;19.024;2023-02-07T07:01:25;102441.84;;;-5.97;93.70
58775;BME280;44545;47.480;19.024;2023-02-07T07:04:28;102441.34;;;-5.78;92.79
58775;BME280;44545;47.480;19.024;2023-02-07T07:07:30;102443.22;;;-5.77;91.48
58775;BME280;44545;47.480;19.024;2023-02-07T07:10:33;102437.19;;;-5.72;90.68
58775;BME280;44545;47.480;19.024;2023-02-07T07:13:36;102438.56;;;-5.46;90.18
58775;BME280;44545;47.480;19.024;2023-02-07T07:16:38;102434.59;;;-5.15;88.30
58775;BME280;44545;47.480;19.024;2023-02-07T07:19:44;102432.50;;;-5.01;84.72
58775;BME280;44545;47.480;19.024;2023-02-07T07:22:47;102428.81;;;-5.09;84.32
58775;BME280;44545;47.480;19.024;2023-02-07T07:25:49;102434.06;;;-4.90;84.22
58775;BME280;44545;47.480;19.024;2023-02-07T07:28:53;102434.00;;;-4.68;82.27
58775;BME280;44545;47.480;19.024;2023-02-07T07:31:59;102427.31;;;-4.73;82.44
58775;BME280;44545;47.480;19.024;2023-02-07T07:35:02;102423.37;;;-4.71;82.29
58775;BME280;44545;47.480;19.024;2023-02-07T07:38:06;102431.38;;;-4.57;81.49
58775;BME280;44545;47.480;19.024;2023-02-07T07:41:08;102434.88;;;-4.62;80.47
58775;BME280;44545;47.480;19.024;2023-02-07T07:44:10;102438.75;;;-4.47;80.28
58775;BME280;44545;47.480;19.024;2023-02-07T07:47:13;102434.53;;;-4.35;78.30
58775;BME280;44545;47.480;19.024;2023-02-07T07:50:15;102427.16;;;-4.04;77.63
58775;BME280;44545;47.480;19.024;2023-02-07T07:53:18;102434.22;;;-3.90;76.32
58775;BME280;44545;47.480;19.024;2023-02-07T07:56:21;102434.22;;;-3.90;76.61
58775;BME280;44545;47.480;19.024;2023-02-07T07:59:23;102429.78;;;-3.85;76.41
58775;BME280;44545;47.480;19.024;2023-02-07T08:02:26;102435.22;;;-3.17;73.73
58775;BME280;44545;47.480;19.024;2023-02-07T08:05:29;102421.72;;;-2.19;70.79
58775;BME280;44545;47.480;19.024;2023-02-07T08:08:32;102423.72;;;-1.98;68.92
58775;BME280;44545;47.480;19.024;2023-02-07T08:11:34;102417.97;;;-1.71;68.14
58775;BME280;44545;47.480;19.024;2023-02-07T08:14:36;102417.59;;;-1.48;66.14
58775;BME280;44545;47.480;19.024;2023-02-07T08:17:39;102417.81;;;-1.34;64.99
58775;BME280;44545;47.480;19.024;2023-02-07T08:20:42;102408.28;;;-1.48;64.96
58775;BME280;44545;47.480;19.024;2023-02-07T08:23:44;102407.38;;;-1.36;65.25
58775;BME280;44545;47.480;19.024;2023-02-07T08:26:46;102407.75;;;-1.33;63.91
58775;BME280;44545;47.480;19.024;2023-02-07T08:29:53;102411.34;;;-1.38;64.27
58775;BME280;44545;47.480;19.024;2023-02-07T08:32:55;102416.25;;;-0.88;63.17
58775;BME280;44545;47.480;19.024;2023-02-07T08:35:58;102412.84;;;-0.49;61.54
58775;BME280;44545;47.480;19.024;2023-02-07T08:39:01;102412.22;;;-0.53;61.06
58775;BME280;44545;47.480;19.024;2023-02-07T08:42:07;102424.28;;;-0.07;60.39
58775;BME280;44545;47.480;19.024;2023-02-07T08:45:12;102412.72;;;0.37;57.77
58775;BME280;44545;47.480;19.024;2023-02-07T08:48:15;102425.19;;;-0.06;58.17
58775;BME280;44545;47.480;19.024;2023-02-07T08:51:17;102422.63;;;0.61;57.21
58775;BME280;44545;47.480;19.024;2023-02-07T08:54:20;102428.50;;;0.13;57.93
58775;BME280;44545;47.480;19.024;2023-02-07T08:57:23;102429.19;;;0.32;58.72
58775;BME280;44545;47.480;19.024;2023-02-07T09:00:27;102425.00;;;1.28;55.83
58775;BME280;44545;47.480;19.024;2023-02-07T09:03:29;102418.31;;;1.16;54.73
58775;BME280;44545;47.480;19.024;2023-02-07T09:06:31;102421.09;;;0.83;55.49
58775;BME280;44545;47.480;19.024;2023-02-07T09:09:34;102422.22;;;0.58;56.41
58775;BME280;44545;47.480;19.024;2023-02-07T09:12:37;102421.34;;;0.92;55.60
58775;BME280;44545;47.480;19.024;2023-02-07T09:15:39;102417.78;;;1.18;53.70
58775;BME280;44545;47.480;19.024;2023-02-07T09:18:41;102418.06;;;0.38;55.38
58775;BME280;44545;47.480;19.024;2023-02-07T09:21:43;102417.91;;;0.44;55.83
58775;BME280;44545;47.480;19.024;2023-02-07T09:24:46;102420.47;;;1.40;53.66
58775;BME280;44545;47.480;19.024;2023-02-07T09:27:49;102412.50;;;2.44;50.11
58775;BME280;44545;47.480;19.024;2023-02-07T09:30:51;102419.09;;;3.22;47.40
58775;BME280;44545;47.480;19.024;2023-02-07T09:33:54;102418.47;;;3.69;46.59
58775;BME280;44545;47.480;19.024;2023-02-07T09:36:57;102405.78;;;6.16;40.79
58775;BME280;44545;47.480;19.024;2023-02-07T09:39:59;102405.47;;;7.58;36.71
58775;BME280;44545;47.480;19.024;2023-02-07T09:46:20;102405.63;;;5.09;41.83
58775;BME280;44545;47.480;19.024;2023-02-07T09:49:34;102395.69;;;6.44;39.13
58775;BME280;44545;47.480;19.024;2023-02-07T09:52:44;102390.56;;;7.92;35.90
58775;BME280;44545;47.480;19.024;2023-02-07T09:55:55;102392.75;;;7.78;35.03
58775;BME280;44545;47.480;19.024;2023-02-07T10:05:50;102400.28;;;4.92;41.00
58775;BME280;44545;47.480;19.024;2023-02-07T10:08:57;102395.44;;;4.40;42.15
58775;BME280;44545;47.480;19.024;2023-02-07T10:15:45;102398.75;;;4.00;43.33
58775;BME280;44545;47.480;19.024;2023-02-07T10:18:57;102401.31;;;3.47;43.69
58775;BME280;44545;47.480;19.024;2023-02-07T10:25:32;102375.41;;;6.40;38.45
58775;BME280;44545;47.480;19.024;2023-02-07T10:28:56;102370.19;;;6.82;37.72
58775;BME280;44545;47.480;19.024;2023-02-07T10:32:10;102361.91;;;7.64;35.12
58775;BME280;44545;47.480;19.024;2023-02-07T10:35:17;102361.59;;;8.23;33.67
58775;BME280;44545;47.480;19.024;2023-02-07T10:38:35;102360.34;;;9.03;32.24
58775;BME280;44545;47.480;19.024;2023-02-07T10:41:41;102360.22;;;8.55;32.26
58775;BME280;44545;47.480;19.024;2023-02-07T10:44:46;102350.62;;;7.72;33.42
58775;BME280;44545;47.480;19.024;2023-02-07T10:47:49;102362.44;;;7.16;34.33
58775;BME280;44545;47.480;19.024;2023-02-07T10:50:51;102350.22;;;7.95;33.21
58775;BME280;44545;47.480;19.024;2023-02-07T10:57:15;102353.41;;;8.46;31.82
58775;BME280;44545;47.480;19.024;2023-02-07T11:03:30;102344.66;;;9.30;29.48
58775;BME280;44545;47.480;19.024;2023-02-07T11:06:33;102327.78;;;13.15;25.14
58775;BME280;44545;47.480;19.024;2023-02-07T11:09:35;102330.19;;;12.32;24.61
58775;BME280;44545;47.480;19.024;2023-02-07T11:12:57;102324.19;;;13.36;23.91
58775;BME280;44545;47.480;19.024;2023-02-07T11:16:09;102318.88;;;15.75;20.90
58775;BME280;44545;47.480;19.024;2023-02-07T11:19:19;102315.47;;;17.81;18.86
58775;BME280;44545;47.480;19.024;2023-02-07T11:22:26;102311.91;;;21.24;15.91
58775;BME280;44545;47.480;19.024;2023-02-07T11:25:33;102310.22;;;22.63;14.17
58775;BME280;44545;47.480;19.024;2023-02-07T11:28:37;102308.37;;;21.45;14.81
58775;BME280;44545;47.480;19.024;2023-02-07T11:31:40;102309.00;;;18.91;16.39
58775;BME280;44545;47.480;19.024;2023-02-07T11:34:48;102316.00;;;17.75;17.18
58775;BME280;44545;47.480;19.024;2023-02-07T11:38:21;102296.44;;;21.14;14.22
58775;BME280;44545;47.480;19.024;2023-02-07T11:44:29;102294.09;;;24.84;11.36
58775;BME280;44545;47.480;19.024;2023-02-07T11:47:33;102300.00;;;23.81;11.95
58775;BME280;44545;47.480;19.024;2023-02-07T11:50:38;102295.06;;;23.66;11.86
58775;BME280;44545;47.480;19.024;2023-02-07T11:56:50;102290.16;;;26.19;10.12
58775;BME280;44545;47.480;19.024;2023-02-07T12:03:25;102278.56;;;22.96;12.24
58775;BME280;44545;47.480;19.024;2023-02-07T12:06:39;102273.69;;;23.63;11.78
58775;BME280;44545;47.480;19.024;2023-02-07T12:09:55;102273.56;;;23.59;11.68
58775;BME280;44545;47.480;19.024;2023-02-07T12:13:13;102273.87;;;19.47;14.47
58775;BME280;44545;47.480;19.024;2023-02-07T12:16:23;102270.94;;;18.04;15.89
58775;BME280;44545;47.480;19.024;2023-02-07T12:19:31;102266.44;;;17.39;16.79
58775;BME280;44545;47.480;19.024;2023-02-07T12:22:43;102284.22;;;14.63;18.37
58775;BME280;44545;47.480;19.024;2023-02-07T12:26:10;102286.34;;;11.10;22.46
58775;BME280;44545;47.480;19.024;2023-02-07T12:32:59;102303.69;;;5.56;32.08
58775;BME280;44545;47.480;19.024;2023-02-07T12:39:39;102305.06;;;4.01;35.69
58775;BME280;44545;47.480;19.024;2023-02-07T12:42:53;102299.31;;;3.65;35.94
58775;BME280;44545;47.480;19.024;2023-02-07T12:52:50;102298.16;;;3.47;37.83
58775;BME280;44545;47.480;19.024;2023-02-07T12:56:17;102285.72;;;3.29;37.33
58775;BME280;44545;47.480;19.024;2023-02-07T13:10:47;102292.59;;;2.46;39.12
58775;BME280;44545;47.480;19.024;2023-02-07T13:24:14;102288.34;;;2.39;39.41
58775;BME280;44545;47.480;19.024;2023-02-07T13:27:19;102288.16;;;2.38;39.32
58775;BME280;44545;47.480;19.024;2023-02-07T13:30:25;102285.66;;;2.24;39.90
58775;BME280;44545;47.480;19.024;2023-02-07T13:33:40;102294.13;;;2.01;40.23
58775;BME280;44545;47.480;19.024;2023-02-07T13:36:45;102281.63;;;2.04;40.09
58775;BME280;44545;47.480;19.024;2023-02-07T13:43:18;102291.22;;;1.91;40.25
58775;BME280;44545;47.480;19.024;2023-02-07T13:46:51;102282.03;;;1.71;41.93
58775;BME280;44545;47.480;19.024;2023-02-07T13:56:37;102282.19;;;1.51;43.60
58775;BME280;44545;47.480;19.024;2023-02-07T14:03:33;102283.69;;;1.49;42.74
58775;BME280;44545;47.480;19.024;2023-02-07T14:06:38;102280.00;;;1.47;42.67
58775;BME280;44545;47.480;19.024;2023-02-07T14:09:46;102279.81;;;1.46;43.65
58775;BME280;44545;47.480;19.024;2023-02-07T14:12:50;102284.78;;;1.44;43.25
58775;BME280;44545;47.480;19.024;2023-02-07T14:16:08;102276.91;;;1.57;41.97
58775;BME280;44545;47.480;19.024;2023-02-07T14:19:12;102274.13;;;1.27;42.20
58775;BME280;44545;47.480;19.024;2023-02-07T14:28:29;102288.34;;;0.89;44.12
58775;BME280;44545;47.480;19.024;2023-02-07T14:31:32;102296.81;;;1.02;44.24
58775;BME280;44545;47.480;19.024;2023-02-07T14:35:11;102295.66;;;0.93;44.16
58775;BME280;44545;47.480;19.024;2023-02-07T14:41:44;102301.97;;;1.10;43.95
58775;BME280;44545;47.480;19.024;2023-02-07T14:44:48;102300.22;;;0.81;44.05
58775;BME280;44545;47.480;19.024;2023-02-07T14:47:52;102301.84;;;0.74;44.50
58775;BME280;44545;47.480;19.024;2023-02-07T14:50:54;102301.47;;;0.78;43.94
58775;BME280;44545;47.480;19.024;2023-02-07T14:54:04;102303.31;;;0.72;44.67
58775;BME280;44545;47.480;19.024;2023-02-07T15:00:48;102305.94;;;0.52;45.02
58775;BME280;44545;47.480;19.024;2023-02-07T15:04:05;102311.94;;;0.45;45.37
58775;BME280;44545;47.480;19.024;2023-02-07T15:07:15;102307.59;;;0.51;44.56
58775;BME280;44545;47.480;19.024;2023-02-07T15:13:41;102315.09;;;0.15;46.01
58775;BME280;44545;47.480;19.024;2023-02-07T15:16:44;102311.34;;;0.06;47.10
58775;BME280;44545;47.480;19.024;2023-02-07T15:19:46;102318.28;;;0.00;46.88
58775;BME280;44545;47.480;19.024;2023-02-07T15:22:52;102321.03;;;0.02;47.31
58775;BME280;44545;47.480;19.024;2023-02-07T15:25:55;102327.06;;;0.02;46.78
58775;BME280;44545;47.480;19.024;2023-02-07T15:29:03;102322.28;;;-0.02;46.87
58775;BME280;44545;47.480;19.024;2023-02-07T15:32:25;102327.63;;;-0.20;47.55
58775;BME280;44545;47.480;19.024;2023-02-07T15:35:36;102328.03;;;-0.37;48.33
58775;BME280;44545;47.480;19.024;2023-02-07T15:38:40;102334.66;;;-0.52;49.30
58775;BME280;44545;47.480;19.024;2023-02-07T15:41:44;102332.28;;;-0.51;48.38
58775;BME280;44545;47.480;19.024;2023-02-07T15:44:52;102334.44;;;-0.74;50.30
58775;BME280;44545;47.480;19.024;2023-02-07T15:51:02;102336.28;;;-0.73;50.60
58775;BME280;44545;47.480;19.024;2023-02-07T15:54:06;102339.69;;;-0.79;50.92
58775;BME280;44545;47.480;19.024;2023-02-07T15:57:20;102339.03;;;-0.91;52.10
58775;BME280;44545;47.480;19.024;2023-02-07T16:00:27;102337.25;;;-0.85;52.27
58775;BME280;44545;47.480;19.024;2023-02-07T16:03:35;102350.50;;;-1.07;51.97
58775;BME280;44545;47.480;19.024;2023-02-07T16:06:53;102350.56;;;-1.33;54.16
58775;BME280;44545;47.480;19.024;2023-02-07T16:10:14;102347.50;;;-1.43;55.02
58775;BME280;44545;47.480;19.024;2023-02-07T16:13:21;102348.81;;;-1.40;55.09
58775;BME280;44545;47.480;19.024;2023-02-07T16:16:26;102352.72;;;-1.49;55.56
58775;BME280;44545;47.480;19.024;2023-02-07T16:19:31;102352.37;;;-1.58;54.98
58775;BME280;44545;47.480;19.024;2023-02-07T16:22:34;102346.88;;;-1.61;54.66
58775;BME280;44545;47.480;19.024;2023-02-07T16:25:37;102352.28;;;-1.65;55.16
58775;BME280;44545;47.480;19.024;2023-02-07T16:28:39;102354.12;;;-1.64;55.49
58775;BME280;44545;47.480;19.024;2023-02-07T16:31:42;102354.25;;;-1.69;55.73
58775;BME280;44545;47.480;19.024;2023-02-07T16:34:45;102355.34;;;-1.80;56.23
58775;BME280;44545;47.480;19.024;2023-02-07T16:38:00;102354.19;;;-1.95;57.91
58775;BME280;44545;47.480;19.024;2023-02-07T16:41:03;102361.97;;;-2.01;57.73
58775;BME280;44545;47.480;19.024;2023-02-07T16:44:09;102368.50;;;-2.03;58.41
